M I D A S
Marine Information and Data Acquisition System
Tripno 1883 of the Zeeleeuw from 2010-05-17 06:33:20 to 2010-05-17 16:14:12
Back to CruiseResearch ActivitiesStationsMapUnderway DataData graphs

EquipmentUnitsComment
TimeDGPSUTC
LatitudeDGPSDM.mWGS84
LongitudeDGPSDM.mWGS84
TemperatureSBE03/SBE38deg celciusITS90
ConductivitySBE21S/mITS90
SalinitySBE21 Practical Salinity Units
ChlorophylAChelsea fluorimeterg/lCalibrated in Aceton
Missing or incorrect values are displayed as -999
Sea surface data collected by the RV Zeeleeuw from 2010-05-17 06:19:13 to 2010-05-17 16:23:30
Time Latitude Longitude Temperature Conductivity Salinity ChlorophylA
2010-05-17 06:20:17 51°13.662 2°55.96 18.801 0.112094 0.569467 -1.035392
2010-05-17 06:21:17 51°13.662 2°55.96 18.7783 0.11147 0.56624 -1.000568
2010-05-17 06:22:17 51°13.661 2°55.96 18.7239 0.11428 0.58116 -1.035392
2010-05-17 06:23:17 51°13.661 2°55.96 18.7308 0.115009 0.585084 -1.000568
2010-05-17 06:24:17 51°13.662 2°55.96 18.7364 0.11428 0.581302 -1.000568
2010-05-17 06:25:17 51°13.662 2°55.96 18.7327 0.115529 0.587976 -1.000568
2010-05-17 06:26:17 51°13.662 2°55.961 18.7181 0.116882 0.595208 -1.000568
2010-05-17 06:27:17 51°13.662 2°55.961 18.7342 0.115842 0.589767 -1.000568
2010-05-17 06:28:16 51°13.662 2°55.961 18.7323 0.115842 0.589836 -1.035392
2010-05-17 06:29:14 51°13.662 2°55.96 18.738 0.115529 0.58824 -0.965744
2010-05-17 06:30:13 51°13.662 2°55.961 18.7455 0.115529 0.588308 -1.000568
2010-05-17 06:31:13 51°13.662 2°55.961 18.7515 0.115633 0.58892 -1.000568
2010-05-17 06:32:13 51°13.662 2°55.96 18.7511 0.115737 0.58954 -1.035392
2010-05-17 06:33:14 51°13.663 2°55.961 18.7622 0.115113 0.586297 -1.000568
2010-05-17 06:34:14 51°13.662 2°55.961 18.7709 0.114801 0.58471 -1.035392
2010-05-17 06:35:14 51°13.663 2°55.961 18.7805 0.114384 0.582562 -1.000568
2010-05-17 06:36:14 51°13.663 2°55.96 18.7891 0.114384 0.582629 -1.035392
2010-05-17 06:37:14 51°13.663 2°55.96 18.7898 0.113968 0.580481 -1.000568
2010-05-17 06:38:14 51°13.663 2°55.961 18.7837 0.114697 0.584404 -1.000568
2010-05-17 06:39:14 51°13.662 2°55.96 18.7846 0.114176 0.581703 -0.965744
2010-05-17 06:40:16 51°13.671 2°55.929 18.7292 0.117091 0.597229 -1.000568
2010-05-17 06:41:18 51°13.687 2°55.837 18.8066 0.115321 0.587904 -1.035392
2010-05-17 06:42:17 51°13.698 2°55.759 18.8424 0.112094 0.570853 -1.000568
2010-05-17 06:43:14 51°13.701 2°55.757 18.8035 0.114592 0.584182 -1.035392
2010-05-17 06:44:18 51°13.699 2°55.74 18.9036 0.108451 0.5517 -1.000568
2010-05-17 06:45:14 51°13.757 2°55.686 18.6922 0.109804 0.558883 -1.000568
2010-05-17 06:46:14 51°13.892 2°55.586 18.4791 0.111886 0.570023 -1.000568
2010-05-17 06:47:14 51°14.05 2°55.496 12.2855 3.728858 28.593656 0.601338
2010-05-17 06:48:14 51°14.201 2°55.362 12.1208 3.282213 27.536399 1.332643
2010-05-17 06:49:14 51°14.359 2°55.205 12.0157 3.225834 27.215313 1.367467
2010-05-17 06:50:14 51°14.529 2°55.045 11.9286 3.291281 27.924122 1.680884
2010-05-17 06:51:14 51°14.701 2°54.839 11.8314 3.335127 28.415428 1.680884
2010-05-17 06:52:14 51°14.885 2°54.647 11.802 3.453399 29.627643 2.342541
2010-05-17 06:53:14 51°15.078 2°54.501 11.8085 3.478278 29.883399 2.029124
2010-05-17 06:54:14 51°15.286 2°54.465 11.7816 3.489664 30.00081 1.680884
2010-05-17 06:55:14 51°15.501 2°54.424 11.7612 3.499048 30.11897 1.47194
2010-05-17 06:56:14 51°15.719 2°54.37 11.6527 3.497256 30.132458 1.332643
2010-05-17 06:57:14 51°15.897 2°54.324 11.5687 3.513071 30.368635 1.750532
2010-05-17 06:58:14 51°16.031 2°54.3 11.5571 3.51381 30.437827 1.576412
2010-05-17 06:59:14 51°16.141 2°54.278 11.5442 3.507379 30.387011 1.506764
2010-05-17 07:00:13 51°16.235 2°54.256 11.5321 3.509277 30.414332 1.332643
2010-05-17 07:01:14 51°16.277 2°54.22 11.5233 3.507696 30.41144 1.123699
2010-05-17 07:02:14 51°16.289 2°54.201 11.5263 3.506642 30.408431 1.019227
2010-05-17 07:03:14 51°16.299 2°54.187 11.5196 3.505904 30.40068 1.088875
2010-05-17 07:04:14 51°16.305 2°54.172 11.5229 3.505271 30.399781 1.158523
2010-05-17 07:05:14 51°16.309 2°54.157 11.5196 3.506325 30.411226 1.158523
2010-05-17 07:06:14 51°16.311 2°54.14 11.5221 3.503584 30.38614 1.193347
2010-05-17 07:07:14 51°16.31 2°54.123 11.5213 3.502108 30.370638 1.158523
2010-05-17 07:08:14 51°16.309 2°54.106 11.5278 3.501159 30.361507 1.123699
2010-05-17 07:09:14 51°16.307 2°54.09 11.5292 3.506114 30.40725 1.123699
2010-05-17 07:10:14 51°16.304 2°54.075 11.5356 3.506536 30.41066 1.158523
2010-05-17 07:11:14 51°16.3 2°54.062 11.5472 3.50759 30.415616 1.123699
2010-05-17 07:12:13 51°16.296 2°54.05 11.548 3.508434 30.418541 1.088875
2010-05-17 07:13:24 51°16.331 2°54.016 11.5475 3.508223 30.416512 1.088875
2010-05-17 07:14:29 51°16.465 2°53.9 11.5381 3.508434 30.421137 1.088875
2010-05-17 07:15:29 51°16.622 2°53.72 11.528 3.508539 30.42994 1.123699
2010-05-17 07:16:29 51°16.786 2°53.486 11.5293 3.510226 30.453976 1.088875
2010-05-17 07:17:30 51°16.946 2°53.233 11.5305 3.512651 30.48253 1.750532
2010-05-17 07:18:29 51°17.082 2°52.971 11.4704 3.515181 30.502344 1.680884
2010-05-17 07:19:30 51°17.234 2°52.691 11.4525 3.526885 30.665489 1.924652
2010-05-17 07:20:30 51°17.382 2°52.416 11.4477 3.527096 30.676709 2.586309
2010-05-17 07:21:30 51°17.537 2°52.148 11.4246 3.528467 30.697166 1.924652
2010-05-17 07:22:30 51°17.7 2°51.898 11.4007 3.532684 30.76094 1.576412
2010-05-17 07:23:30 51°17.868 2°51.662 11.3535 3.535004 30.800516 1.611236
2010-05-17 07:24:30 51°18.057 2°51.462 11.3177 3.539538 30.885419 1.506764
2010-05-17 07:25:30 51°18.224 2°51.278 11.3027 3.544072 30.953267 1.750532
2010-05-17 07:26:29 51°18.318 2°51.167 11.2949 3.545232 30.977159 2.098773
2010-05-17 07:27:30 51°18.387 2°51.117 11.2944 3.546497 30.994099 2.029124
2010-05-17 07:28:30 51°18.44 2°51.059 11.2888 3.547657 31.010021 1.959476
2010-05-17 07:29:29 51°18.484 2°51.014 11.2832 3.548711 31.022923 1.9943
2010-05-17 07:30:30 51°18.499 2°50.987 11.2769 3.548712 31.025591 1.855004
2010-05-17 07:31:30 51°18.505 2°50.963 11.2717 3.549344 31.039744 1.785356
2010-05-17 07:32:30 51°18.508 2°50.941 11.2685 3.549133 31.043038 1.750532
2010-05-17 07:33:29 51°18.508 2°50.922 11.2692 3.54945 31.046779 1.785356
2010-05-17 07:34:30 51°18.525 2°50.895 11.2805 3.549661 31.048827 1.889828
2010-05-17 07:35:30 51°18.608 2°50.937 11.273 3.549766 31.045843 1.82018
2010-05-17 07:36:29 51°18.693 2°51.144 11.2625 3.548923 31.042326 1.9943
2010-05-17 07:37:29 51°18.767 2°51.438 11.2824 3.546814 31.02318 2.063949
2010-05-17 07:38:30 51°18.826 2°51.761 11.3046 3.5446 30.987007 2.098773
2010-05-17 07:39:30 51°18.885 2°52.079 11.3041 3.543334 30.960743 1.924652
2010-05-17 07:40:30 51°18.945 2°52.395 11.3047 3.542912 30.955321 1.715708
2010-05-17 07:41:30 51°19.009 2°52.711 11.3152 3.543756 30.96417 1.611236
2010-05-17 07:42:30 51°19.072 2°53.03 11.3225 3.543334 30.952759 1.437116
2010-05-17 07:43:29 51°19.135 2°53.344 11.3199 3.542701 30.942634 1.297819
2010-05-17 07:44:29 51°19.199 2°53.662 11.3208 3.542069 30.936499 1.228171
2010-05-17 07:45:30 51°19.264 2°53.984 11.3175 3.542491 30.938595 1.158523
2010-05-17 07:46:30 51°19.325 2°54.3 11.2932 3.543123 30.948719 1.228171
2010-05-17 07:47:30 51°19.387 2°54.613 11.2814 3.542913 30.971964 1.297819
2010-05-17 07:48:30 51°19.449 2°54.926 11.2935 3.541331 30.960609 1.332643
2010-05-17 07:49:30 51°19.513 2°55.238 11.317 3.541226 30.946272 1.158523
2010-05-17 07:50:30 51°19.576 2°55.55 11.3479 3.5388 30.906132 1.123699
2010-05-17 07:51:30 51°19.639 2°55.864 11.3616 3.538062 30.872444 1.158523
2010-05-17 07:52:30 51°19.705 2°56.177 11.4139 3.53511 30.827965 1.193347
2010-05-17 07:53:30 51°19.769 2°56.489 11.443 3.53279 30.762618 1.367467
2010-05-17 07:54:30 51°19.833 2°56.802 11.4495 3.533106 30.747895 1.367467
2010-05-17 07:55:30 51°19.897 2°57.113 11.4456 3.536269 30.771871 1.228171
2010-05-17 07:56:29 51°19.959 2°57.417 11.4379 3.53669 30.785827 1.019227
2010-05-17 07:57:30 51°20.024 2°57.726 11.4565 3.531841 30.740278 1.019227
2010-05-17 07:58:30 51°20.094 2°58.025 11.4874 3.522879 30.632063 1.123699
2010-05-17 07:59:30 51°20.166 2°58.322 11.4911 3.520664 30.592374 1.019227
2010-05-17 08:00:30 51°20.236 2°58.616 11.5274 3.518134 30.559478 1.088875
2010-05-17 08:01:30 51°20.306 2°58.908 11.55 3.514549 30.498204 1.228171
2010-05-17 08:02:30 51°20.37 2°59.207 11.509 3.515708 30.495054 1.262995
2010-05-17 08:03:30 51°20.419 2°59.511 11.5173 3.516236 30.532049 1.193347
2010-05-17 08:04:30 51°20.467 2°59.815 11.5193 3.516236 30.52227 1.193347
2010-05-17 08:05:30 51°20.514 3°0.12 11.5548 3.515287 30.505963 1.262995
2010-05-17 08:06:29 51°20.559 3°0.413 11.5401 3.514865 30.487585 1.332643
2010-05-17 08:07:30 51°20.61 3°0.716 11.548 3.513284 30.475611 1.367467
2010-05-17 08:08:30 51°20.661 3°1.014 11.5385 3.508434 30.431523 1.332643
2010-05-17 08:09:30 51°20.709 3°1.314 11.5647 3.509066 30.433716 1.297819
2010-05-17 08:10:29 51°20.758 3°1.608 11.5434 3.508117 30.416796 1.47194
2010-05-17 08:11:30 51°20.807 3°1.913 11.5165 3.503373 30.378276 1.47194
2010-05-17 08:12:30 51°20.855 3°2.213 11.5044 3.492198 30.294034 1.680884
2010-05-17 08:13:30 51°20.901 3°2.512 11.4684 3.486295 30.252071 1.785356
2010-05-17 08:14:29 51°20.965 3°2.796 11.4477 3.478072 30.194202 1.576412
2010-05-17 08:15:29 51°21.031 3°3.085 11.4178 3.471009 30.153262 1.715708
2010-05-17 08:16:32 51°21.1 3°3.39 11.3794 3.465738 30.122455 1.924652
2010-05-17 08:17:31 51°21.167 3°3.676 11.335 3.458675 30.082718 2.063949
2010-05-17 08:18:31 51°21.234 3°3.967 11.2449 3.452562 30.061767 1.959476
2010-05-17 08:19:31 51°21.297 3°4.257 11.1598 3.442759 30.046469 2.098773
2010-05-17 08:20:32 51°21.363 3°4.545 11.1346 3.436118 30.036536 2.481837
2010-05-17 08:21:31 51°21.425 3°4.82 11.1303 3.434537 30.040656 1.889828
2010-05-17 08:22:31 51°21.483 3°5.1 11.1331 3.43401 30.04268 1.611236
2010-05-17 08:23:31 51°21.54 3°5.382 11.135 3.433272 30.029683 1.437116
2010-05-17 08:24:32 51°21.6 3°5.671 11.1481 3.433694 30.031827 1.262995
2010-05-17 08:25:32 51°21.659 3°5.958 11.1239 3.435908 30.048109 1.228171
2010-05-17 08:26:32 51°21.719 3°6.246 11.09 3.436857 30.076143 1.297819
2010-05-17 08:27:32 51°21.777 3°6.531 11.1142 3.437279 30.104302 1.088875
2010-05-17 08:28:32 51°21.838 3°6.817 11.0585 3.441179 30.133719 0.984403
2010-05-17 08:29:32 51°21.901 3°7.102 11.0674 3.44276 30.174519 0.70581
2010-05-17 08:30:32 51°21.959 3°7.39 11.0382 3.441496 30.169404 0.70581
2010-05-17 08:31:31 51°22.019 3°7.675 11.0173 3.441812 30.197972 0.70581
2010-05-17 08:32:31 51°22.082 3°7.964 10.9979 3.441918 30.21471 0.810283
2010-05-17 08:33:31 51°22.144 3°8.255 10.9973 3.441813 30.222857 0.949579
2010-05-17 08:34:31 51°22.207 3°8.547 11.0032 3.442234 30.230898 0.949579
2010-05-17 08:35:31 51°22.246 3°8.846 11.0096 3.444237 30.242537 0.879931
2010-05-17 08:36:31 51°22.275 3°9.149 11.0188 3.443815 30.239742 0.879931
2010-05-17 08:37:31 51°22.298 3°9.452 11.0195 3.44255 30.214973 0.53169
2010-05-17 08:38:32 51°22.327 3°9.758 11.023 3.440758 30.201456 0.462042
2010-05-17 08:39:31 51°22.357 3°10.055 11.0309 3.437806 30.166184 0.462042
2010-05-17 08:40:31 51°22.388 3°10.36 11.0743 3.435065 30.131024 0.53169
2010-05-17 08:41:31 51°22.425 3°10.669 11.1404 3.433589 30.076923 0.462042
2010-05-17 08:42:31 51°22.455 3°10.979 11.0165 3.433905 30.041657 0.35757
2010-05-17 08:43:31 51°22.469 3°11.291 11.0011 3.421045 30.014837 0.670986
2010-05-17 08:44:31 51°22.482 3°11.605 11.0105 3.414615 29.953589 0.601338
2010-05-17 08:45:31 51°22.497 3°11.917 11.0464 3.411874 29.919798 0.601338
2010-05-17 08:46:31 51°22.511 3°12.231 11.0858 3.413033 29.903204 0.427218
2010-05-17 08:47:31 51°22.525 3°12.52 11.0525 3.415352 29.903073 0.462042
2010-05-17 08:48:31 51°22.538 3°12.717 11.039 3.41219 29.900839 0.775459
2010-05-17 08:49:32 51°22.559 3°12.855 11.0935 3.409555 29.87265 0.670986
2010-05-17 08:50:31 51°22.573 3°12.959 11.2207 3.409976 29.823152 0.53169
2010-05-17 08:51:32 51°22.587 3°13.063 11.2741 3.416299 29.794364 0.496866
2010-05-17 08:52:32 51°22.601 3°13.162 11.2796 3.416826 29.761648 0.566514
2010-05-17 08:53:31 51°22.614 3°13.181 11.2789 3.414507 29.736057 0.566514
2010-05-17 08:54:31 51°22.622 3°13.165 11.2814 3.412293 29.715963 0.566514
2010-05-17 08:55:31 51°22.626 3°13.145 11.2849 3.411555 29.706923 0.601338
2010-05-17 08:56:31 51°22.627 3°13.12 11.2836 3.411028 29.698642 0.670986
2010-05-17 08:57:31 51°22.634 3°13.104 11.2913 3.410501 29.692917 0.636162
2010-05-17 08:58:31 51°22.694 3°13.166 11.2928 3.410185 29.688588 0.636162
2010-05-17 08:59:31 51°22.797 3°13.295 11.2868 3.409868 29.678518 0.462042
2010-05-17 09:00:31 51°22.939 3°13.477 11.1695 3.407339 29.680263 0.670986
2010-05-17 09:01:32 51°23.086 3°13.671 11.1083 3.400699 29.685123 1.054051
2010-05-17 09:02:31 51°23.236 3°13.868 11.0444 3.414825 29.882442 1.506764
2010-05-17 09:03:31 51°23.389 3°14.066 11.0428 3.408712 29.867045 1.715708
2010-05-17 09:04:31 51°23.544 3°14.266 11.0255 3.406287 29.846727 1.611236
2010-05-17 09:05:31 51°23.7 3°14.469 11.0278 3.405866 29.851683 2.063949
2010-05-17 09:06:32 51°23.857 3°14.677 11.0139 3.403547 29.836261 2.342541
2010-05-17 09:07:32 51°24.015 3°14.875 10.9819 3.406709 29.874765 2.272893
2010-05-17 09:08:31 51°24.17 3°15.073 10.9692 3.415564 29.983619 1.924652
2010-05-17 09:09:32 51°24.336 3°15.279 10.9824 3.421678 30.047049 1.437116
2010-05-17 09:10:32 51°24.501 3°15.469 10.9926 3.422943 30.053497 1.123699
2010-05-17 09:11:31 51°24.646 3°15.683 11.0565 3.413245 29.940261 0.462042
2010-05-17 09:12:31 51°24.794 3°15.92 10.9938 3.417777 29.954477 0.322746
2010-05-17 09:13:31 51°24.942 3°16.163 11.0286 3.415248 29.964938 0.35757
2010-05-17 09:14:31 51°25.09 3°16.409 11.0212 3.426 30.044804 0.392394
2010-05-17 09:15:31 51°25.232 3°16.656 11.0972 3.443921 30.224384 0.35757
2010-05-17 09:16:31 51°25.372 3°16.896 11.0418 3.461209 30.346045 0.392394
2010-05-17 09:17:50 51°25.508 3°17.134 11.0322 3.450667 30.267765 0.566514
2010-05-17 09:18:50 51°25.585 3°17.274 11.0393 3.450878 30.286868 0.427218
2010-05-17 09:19:50 51°25.655 3°17.397 11.0406 3.453514 30.306617 0.322746
2010-05-17 09:20:50 51°25.715 3°17.511 11.0374 3.45267 30.298407 0.253098
2010-05-17 09:21:50 51°25.772 3°17.622 11.0428 3.452249 30.296272 0.253098
2010-05-17 09:22:50 51°25.824 3°17.724 11.0487 3.454989 30.318357 0.18345
2010-05-17 09:23:50 51°25.866 3°17.803 11.0665 3.457414 30.335389 0.218274
2010-05-17 09:24:50 51°25.88 3°17.818 11.075 3.45773 30.329273 0.148626
2010-05-17 09:25:50 51°25.886 3°17.82 11.0763 3.45773 30.322052 0.148626
2010-05-17 09:26:50 51°25.9 3°17.872 11.0709 3.457941 30.321478 0.253098
2010-05-17 09:27:50 51°25.842 3°17.938 11.0811 3.457625 30.324964 0.35757
2010-05-17 09:28:50 51°25.765 3°17.825 11.0824 3.457203 30.305119 0.218274
2010-05-17 09:29:50 51°25.707 3°17.556 11.0568 3.454567 30.283424 0.287922
2010-05-17 09:30:50 51°25.647 3°17.225 11.0468 3.454568 30.306375 0.53169
2010-05-17 09:31:50 51°25.569 3°16.88 11.0436 3.459101 30.351807 0.496866
2010-05-17 09:32:50 51°25.496 3°16.528 11.0416 3.462896 30.394676 0.601338
2010-05-17 09:33:50 51°25.444 3°16.163 11.0461 3.465848 30.422761 0.636162
2010-05-17 09:34:50 51°25.392 3°15.795 11.0515 3.47133 30.474173 0.566514
2010-05-17 09:35:50 51°25.31 3°15.435 11.0957 3.48008 30.551475 0.427218
2010-05-17 09:36:50 51°25.224 3°15.078 11.1151 3.490833 30.622433 0.35757
2010-05-17 09:37:50 51°25.141 3°14.718 11.1496 3.499688 30.691403 0.35757
2010-05-17 09:38:50 51°25.058 3°14.359 11.1506 3.505065 30.717848 0.322746
2010-05-17 09:39:50 51°24.991 3°13.992 11.1203 3.508649 30.753383 0.322746
2010-05-17 09:40:50 51°24.928 3°13.623 11.1028 3.50633 30.754065 0.287922
2010-05-17 09:41:50 51°24.867 3°13.25 11.0958 3.506014 30.766281 0.287922
2010-05-17 09:42:50 51°24.82 3°12.869 11.2075 3.501164 30.702451 0.218274
2010-05-17 09:43:50 51°24.772 3°12.483 11.169 3.480394 30.433988 0.18345
2010-05-17 09:44:50 51°24.724 3°12.101 11.1387 3.468904 30.357864 0.322746
2010-05-17 09:45:50 51°24.677 3°11.723 11.1111 3.483452 30.520242 0.18345
2010-05-17 09:46:50 51°24.634 3°11.342 11.0466 3.491254 30.623889 0.218274
2010-05-17 09:47:50 51°24.594 3°10.961 11.0129 3.482505 30.584369 0.53169
2010-05-17 09:48:50 51°24.56 3°10.576 11.0326 3.466481 30.45465 0.670986
2010-05-17 09:49:50 51°24.525 3°10.191 11.0556 3.467218 30.441383 0.427218
2010-05-17 09:50:49 51°24.512 3°9.815 11.0687 3.467745 30.430695 0.53169
2010-05-17 09:51:50 51°24.522 3°9.434 11.0526 3.463528 30.387671 0.740634
2010-05-17 09:52:49 51°24.549 3°9.073 11.0576 3.461842 30.375857 0.845107
2010-05-17 09:53:50 51°24.577 3°8.703 11.0651 3.470697 30.460754 0.740634
2010-05-17 09:54:50 51°24.647 3°8.36 11.0524 3.477549 30.51956 0.70581
2010-05-17 09:55:50 51°24.731 3°8.026 11.0482 3.480818 30.561973 0.775459
2010-05-17 09:56:49 51°24.812 3°7.697 11.0461 3.482294 30.577015 0.810283
2010-05-17 09:57:49 51°24.914 3°7.38 11.0509 3.481767 30.574528 0.914755
2010-05-17 09:58:49 51°25.056 3°7.12 11.0418 3.48145 30.573433 0.914755
2010-05-17 09:59:50 51°25.247 3°6.99 11.0504 3.481239 30.569392 0.914755
2010-05-17 10:00:50 51°25.427 3°7.105 11.0387 3.480291 30.556176 0.879931
2010-05-17 10:01:49 51°25.57 3°7.323 11.0236 3.478604 30.553639 0.879931
2010-05-17 10:02:50 51°25.726 3°7.531 11.0222 3.477023 30.549481 0.914755
2010-05-17 10:03:49 51°25.879 3°7.727 11.028 3.477128 30.550509 0.879931
2010-05-17 10:04:50 51°26.038 3°7.923 11.0233 3.477128 30.547198 1.019227
2010-05-17 10:05:50 51°26.181 3°8.09 11.0154 3.476917 30.548453 1.123699
2010-05-17 10:06:50 51°26.262 3°8.194 11.0123 3.476496 30.551627 1.332643
2010-05-17 10:07:50 51°26.325 3°8.234 11.0238 3.477128 30.560445 1.193347
2010-05-17 10:08:49 51°26.384 3°8.26 11.0529 3.479447 30.568482 0.810283
2010-05-17 10:09:50 51°26.428 3°8.289 11.0714 3.482399 30.579367 0.670986
2010-05-17 10:10:50 51°26.425 3°8.322 11.0716 3.485035 30.589812 0.775459
2010-05-17 10:11:50 51°26.413 3°8.35 11.0844 3.486089 30.59412 0.670986
2010-05-17 10:12:50 51°26.399 3°8.368 11.1071 3.487565 30.599886 0.496866
2010-05-17 10:13:50 51°26.383 3°8.379 11.1086 3.489778 30.604228 0.496866
2010-05-17 10:14:50 51°26.372 3°8.389 11.0951 3.490411 30.61237 0.636162
2010-05-17 10:15:50 51°26.406 3°8.354 11.1005 3.489673 30.615117 0.740634
2010-05-17 10:16:50 51°26.504 3°8.195 11.1169 3.490727 30.617434 0.566514
2010-05-17 10:17:50 51°26.605 3°7.932 11.1323 3.492941 30.62574 0.322746
2010-05-17 10:18:50 51°26.714 3°7.635 11.0971 3.4941 30.625109 0.287922
2010-05-17 10:19:49 51°26.828 3°7.338 11.0685 3.490622 30.630318 0.740634
2010-05-17 10:20:50 51°26.945 3°7.031 11.0831 3.488935 30.633114 0.810283
2010-05-17 10:21:50 51°27.062 3°6.734 11.2385 3.490833 30.615812 0.218274
2010-05-17 10:22:50 51°27.178 3°6.437 11.2012 3.493994 30.544908 -0.095143
2010-05-17 10:23:49 51°27.294 3°6.143 11.1795 3.492307 30.55685 -0.060319
2010-05-17 10:24:50 51°27.411 3°5.837 11.1799 3.493257 30.58387 0.009329
2010-05-17 10:25:50 51°27.527 3°5.535 11.1808 3.496525 30.612324 0.009329
2010-05-17 10:26:49 51°27.642 3°5.237 11.1544 3.499055 30.634927 -0.025495
2010-05-17 10:27:50 51°27.762 3°4.928 11.1292 3.49779 30.643791 0.078977
2010-05-17 10:28:49 51°27.878 3°4.629 11.1153 3.498318 30.676737 0.113802
2010-05-17 10:29:50 51°27.999 3°4.317 11.1405 3.500004 30.686522 0.044153
2010-05-17 10:30:49 51°28.105 3°4.055 11.1175 3.503905 30.714527 0.009329
2010-05-17 10:31:50 51°28.177 3°3.881 11.1193 3.507595 30.775029 0.009329
2010-05-17 10:32:50 51°28.233 3°3.729 11.1041 3.511918 30.809802 -0.060319
2010-05-17 10:33:50 51°28.286 3°3.579 11.1024 3.513289 30.841817 -0.095143
2010-05-17 10:34:49 51°28.305 3°3.506 11.0926 3.517084 30.870125 -0.129967
2010-05-17 10:35:49 51°28.307 3°3.483 11.0785 3.518455 30.892832 -0.095143
2010-05-17 10:36:50 51°28.3 3°3.465 11.0721 3.519087 30.908359 -0.060319
2010-05-17 10:37:50 51°28.29 3°3.446 11.1005 3.519509 30.915147 -0.025495
2010-05-17 10:38:50 51°28.278 3°3.427 11.0798 3.521618 30.920988 -0.025495
2010-05-17 10:39:49 51°28.263 3°3.408 11.0737 3.520458 30.9244 -0.025495
2010-05-17 10:40:50 51°28.251 3°3.387 11.0652 3.518455 30.912894 0.044153
2010-05-17 10:41:50 51°28.256 3°3.34 11.0852 3.519615 30.922198 -0.025495
2010-05-17 10:42:49 51°28.236 3°3.231 11.1122 3.520985 30.926194 -0.060319
2010-05-17 10:43:50 51°28.199 3°2.984 11.0947 3.52478 30.939775 -0.129967
2010-05-17 10:44:49 51°28.175 3°2.655 11.075 3.525729 30.955715 -0.095143
2010-05-17 10:45:50 51°28.139 3°2.266 11.0905 3.524464 30.968164 -0.129967
2010-05-17 10:46:50 51°28.101 3°1.881 11.0578 3.527838 30.995711 -0.129967
2010-05-17 10:47:50 51°28.06 3°1.489 11.0558 3.529209 31.023181 -0.095143
2010-05-17 10:48:50 51°27.997 3°1.103 10.9644 3.534059 31.075903 -0.095143
2010-05-17 10:49:50 51°27.931 3°0.72 10.9291 3.536696 31.182696 0.35757
2010-05-17 10:50:49 51°27.861 3°0.345 10.967 3.538172 31.21003 0.253098
2010-05-17 10:51:50 51°27.793 2°59.958 10.9833 3.539753 31.207888 0.148626
2010-05-17 10:52:50 51°27.726 2°59.58 10.915 3.539121 31.198307 0.218274
2010-05-17 10:53:50 51°27.66 2°59.202 10.8593 3.53754 31.230305 0.35757
2010-05-17 10:54:50 51°27.595 2°58.827 10.8192 3.537857 31.277636 0.53169
2010-05-17 10:55:50 51°27.53 2°58.452 10.8148 3.534483 31.275181 0.392394
2010-05-17 10:56:50 51°27.465 2°58.076 10.8284 3.533113 31.270582 0.566514
2010-05-17 10:57:50 51°27.398 2°57.696 10.8035 3.533113 31.259669 0.670986
2010-05-17 10:58:50 51°27.324 2°57.314 10.8768 3.532902 31.270556 0.670986
2010-05-17 10:59:50 51°27.248 2°56.933 11.0332 3.536486 31.236277 0.253098
2010-05-17 11:00:50 51°27.174 2°56.55 11.0724 3.540701 31.152235 -0.025495
2010-05-17 11:01:50 51°27.099 2°56.168 11.0804 3.538803 31.11145 -0.060319
2010-05-17 11:02:50 51°27.027 2°55.788 11.0784 3.53796 31.097157 -0.060319
2010-05-17 11:03:50 51°26.956 2°55.411 11.0753 3.538487 31.102976 -0.025495
2010-05-17 11:04:50 51°26.884 2°55.034 11.1352 3.540912 31.114523 -0.095143
2010-05-17 11:05:50 51°26.813 2°54.656 11.1189 3.544707 31.125973 -0.060319
2010-05-17 11:06:51 51°26.741 2°54.267 11.1068 3.546394 31.141749 -0.095143
2010-05-17 11:07:50 51°26.67 2°53.892 10.8962 3.55019 31.190902 -0.060319
2010-05-17 11:08:50 51°26.6 2°53.514 10.7454 3.563477 31.517636 0.601338
2010-05-17 11:09:50 51°26.531 2°53.141 10.7141 3.560737 31.597406 0.949579
2010-05-17 11:10:49 51°26.463 2°52.775 10.7098 3.561581 31.631313 1.228171
2010-05-17 11:11:50 51°26.391 2°52.394 10.7104 3.563585 31.6587 1.367467
2010-05-17 11:12:50 51°26.322 2°52.024 10.697 3.566115 31.687838 1.437116
2010-05-17 11:13:50 51°26.254 2°51.653 10.6975 3.566221 31.697207 1.402292
2010-05-17 11:14:50 51°26.186 2°51.284 10.6942 3.56738 31.709355 1.297819
2010-05-17 11:15:50 51°26.116 2°50.91 10.7377 3.572547 31.755511 1.158523
2010-05-17 11:16:50 51°26.048 2°50.534 10.7512 3.575288 31.754076 1.054051
2010-05-17 11:17:50 51°25.977 2°50.157 10.7505 3.579083 31.773463 0.810283
2010-05-17 11:18:50 51°25.93 2°49.776 10.8091 3.579822 31.787693 0.914755
2010-05-17 11:19:50 51°25.899 2°49.392 10.7468 3.582352 31.766815 0.984403
2010-05-17 11:20:50 51°25.866 2°49.009 10.9009 3.587413 31.829893 1.019227
2010-05-17 11:21:55 51°25.833 2°48.661 10.8321 3.594898 31.823782 0.914755
2010-05-17 11:23:01 51°25.86 2°48.484 11.0393 3.594477 31.851551 0.810283
2010-05-17 11:24:02 51°25.901 2°48.48 10.9772 3.598481 31.69754 0.322746
2010-05-17 11:25:02 51°25.9 2°48.481 10.919 3.60038 31.809832 0.914755
2010-05-17 11:26:02 51°25.886 2°48.476 10.9094 3.599853 31.840637 0.984403
2010-05-17 11:27:02 51°25.87 2°48.469 10.9561 3.599959 31.834747 1.019227
2010-05-17 11:28:01 51°25.854 2°48.459 10.9543 3.60038 31.805685 0.845107
2010-05-17 11:29:02 51°25.837 2°48.444 10.9483 3.601224 31.818114 0.914755
2010-05-17 11:30:02 51°25.819 2°48.428 10.9518 3.601013 31.83403 0.949579
2010-05-17 11:31:02 51°25.8 2°48.41 10.9651 3.60154 31.814307 0.879931
2010-05-17 11:32:02 51°25.78 2°48.393 10.9691 3.602489 31.828463 0.392394
2010-05-17 11:33:02 51°25.773 2°48.394 10.9749 3.603227 31.803924 0.218274
2010-05-17 11:34:02 51°25.734 2°48.462 10.9692 3.604387 31.841565 0.70581
2010-05-17 11:35:02 51°25.632 2°48.398 10.8566 3.602383 31.792889 0.148626
2010-05-17 11:36:02 51°25.47 2°48.179 10.7411 3.600592 31.918046 0.984403
2010-05-17 11:37:02 51°25.284 2°47.928 10.7859 3.592369 31.900362 0.775459
2010-05-17 11:38:02 51°25.098 2°47.673 10.9022 3.595321 31.88002 0.392394
2010-05-17 11:39:02 51°24.913 2°47.41 11.1262 3.593527 31.756349 0.18345
2010-05-17 11:40:02 51°24.729 2°47.146 11.0354 3.593525 31.627119 0.078977
2010-05-17 11:41:02 51°24.546 2°46.878 10.9547 3.586356 31.606945 0.218274
2010-05-17 11:42:02 51°24.399 2°46.561 10.9554 3.582139 31.624614 0.253098
2010-05-17 11:43:01 51°24.291 2°46.212 10.9632 3.57771 31.567465 0.218274
2010-05-17 11:44:01 51°24.207 2°45.84 10.9875 3.580768 31.61529 0.287922
2010-05-17 11:45:01 51°24.116 2°45.472 11.0136 3.581084 31.571068 0.113802
2010-05-17 11:46:01 51°24.022 2°45.105 11.0735 3.580557 31.560428 0.148626
2010-05-17 11:47:02 51°23.926 2°44.731 11.0128 3.580662 31.542993 0.113802
2010-05-17 11:48:02 51°23.83 2°44.366 11.0328 3.582981 31.534946 -0.025495
2010-05-17 11:49:01 51°23.735 2°44.008 11.2274 3.586144 31.544029 -0.060319
2010-05-17 11:50:01 51°23.638 2°43.644 11.0677 3.593418 31.554403 0.009329
2010-05-17 11:51:01 51°23.541 2°43.284 10.8702 3.590256 31.603362 0.009329
2010-05-17 11:52:01 51°23.446 2°42.924 11.1038 3.595425 31.804722 0.427218
2010-05-17 11:53:01 51°23.351 2°42.561 11.0031 3.594052 31.656252 0.392394
2010-05-17 11:54:01 51°23.256 2°42.201 10.9997 3.593948 31.7143 0.322746
2010-05-17 11:55:01 51°23.16 2°41.843 10.894 3.596162 31.72775 0.35757
2010-05-17 11:56:01 51°23.064 2°41.488 10.9266 3.600908 31.864175 0.496866
2010-05-17 11:57:01 51°22.968 2°41.132 10.9332 3.59785 31.789821 0.35757
2010-05-17 11:58:01 51°22.873 2°40.787 10.6194 3.61799 32.072027 0.914755
2010-05-17 11:59:01 51°22.779 2°40.443 10.6353 3.613459 32.207169 0.845107
2010-05-17 12:00:01 51°22.685 2°40.099 10.6262 3.61135 32.186982 0.670986
2010-05-17 12:01:01 51°22.591 2°39.753 10.7004 3.614197 32.203179 0.670986
2010-05-17 12:02:01 51°22.496 2°39.406 10.7533 3.615989 32.189874 0.566514
2010-05-17 12:03:01 51°22.4 2°39.059 10.7509 3.619362 32.168304 0.322746
2010-05-17 12:04:01 51°22.303 2°38.715 10.6455 3.627904 32.267526 0.53169
2010-05-17 12:05:01 51°22.21 2°38.374 10.6481 3.628748 32.351613 0.949579
2010-05-17 12:06:01 51°22.115 2°38.039 10.5812 3.626851 32.356223 1.924652
2010-05-17 12:07:01 51°22.022 2°37.702 10.581 3.624004 32.352845 1.680884
2010-05-17 12:08:01 51°21.928 2°37.366 10.5989 3.623371 32.343012 1.855004
2010-05-17 12:09:01 51°21.834 2°37.03 10.6082 3.622633 32.331425 2.203245
2010-05-17 12:10:01 51°21.743 2°36.693 10.6346 3.622844 32.330677 2.203245
2010-05-17 12:11:01 51°21.65 2°36.358 10.6284 3.624109 32.32974 2.238069
2010-05-17 12:12:01 51°21.558 2°36.022 10.6224 3.624847 32.326416 1.680884
2010-05-17 12:13:01 51°21.465 2°35.687 10.6426 3.624003 32.318052 1.924652
2010-05-17 12:14:01 51°21.37 2°35.354 10.6487 3.625058 32.32496 1.611236
2010-05-17 12:15:01 51°21.267 2°35.026 10.6515 3.62685 32.330672 1.088875
2010-05-17 12:16:01 51°21.164 2°34.702 10.6784 3.628221 32.337165 1.262995
2010-05-17 12:17:01 51°21.068 2°34.376 10.6555 3.628854 32.33918 1.437116
2010-05-17 12:18:01 51°20.978 2°34.051 10.6662 3.622738 32.304798 1.959476
2010-05-17 12:19:01 51°20.89 2°33.725 10.6453 3.620313 32.271549 2.307717
2010-05-17 12:20:01 51°20.775 2°33.426 10.7078 3.617782 32.249301 2.377365
2010-05-17 12:21:01 51°20.641 2°33.142 10.7338 3.620418 32.23441 1.576412
2010-05-17 12:22:02 51°20.579 2°32.796 10.7162 3.625057 32.241491 1.297819
2010-05-17 12:23:01 51°20.517 2°32.462 10.7414 3.624108 32.262461 2.481837
2010-05-17 12:24:01 51°20.439 2°32.129 10.7908 3.626427 32.250812 1.47194
2010-05-17 12:25:06 51°20.368 2°31.759 10.8362 3.630539 32.247742 0.949579
2010-05-17 12:26:06 51°20.3 2°31.421 10.6859 3.633491 32.25295 0.740634
2010-05-17 12:27:06 51°20.235 2°31.088 10.5962 3.637711 32.439764 2.93455
2010-05-17 12:28:06 51°20.173 2°30.778 10.6331 3.635919 32.475424 3.387263
2010-05-17 12:29:06 51°20.129 2°30.568 10.6768 3.635075 32.435683 3.213142
2010-05-17 12:30:06 51°20.091 2°30.395 10.7301 3.636762 32.409027 2.864902
2010-05-17 12:31:06 51°20.049 2°30.194 10.7506 3.639819 32.401691 2.377365
2010-05-17 12:32:06 51°20.011 2°30.033 10.8029 3.638659 32.378868 1.715708
2010-05-17 12:33:06 51°19.986 2°30.009 10.8701 3.642033 32.34644 0.53169
2010-05-17 12:34:06 51°19.966 2°30.034 10.8738 3.644669 32.340705 0.70581
2010-05-17 12:35:06 51°19.95 2°30.07 10.9129 3.644352 32.323485 0.670986
2010-05-17 12:36:06 51°19.935 2°30.107 10.9008 3.645722 32.293367 0.566514
2010-05-17 12:37:06 51°19.912 2°30.145 10.9251 3.644879 32.294196 0.670986
2010-05-17 12:38:06 51°19.848 2°30.255 10.9582 3.644457 32.287931 0.566514
2010-05-17 12:39:06 51°19.74 2°30.515 10.8889 3.642031 32.215655 0.218274
2010-05-17 12:40:06 51°19.615 2°30.841 10.8617 3.636232 32.210425 0.462042
2010-05-17 12:41:06 51°19.475 2°31.142 10.89 3.645828 32.342981 1.019227
2010-05-17 12:42:06 51°19.334 2°31.431 10.8183 3.631909 32.202203 1.054051
2010-05-17 12:43:06 51°19.195 2°31.719 10.8501 3.621154 32.120708 0.462042
2010-05-17 12:44:06 51°19.054 2°32.008 10.8444 3.622524 32.049642 0.113802
2010-05-17 12:45:06 51°18.911 2°32.296 10.9052 3.616093 32.072204 0.322746
2010-05-17 12:46:06 51°18.773 2°32.59 10.8714 3.615986 31.9944 0.427218
2010-05-17 12:47:06 51°18.635 2°32.885 10.8875 3.607024 31.949366 1.088875
2010-05-17 12:48:05 51°18.501 2°33.181 10.9319 3.603333 31.860978 1.054051
2010-05-17 12:49:06 51°18.361 2°33.49 10.997 3.600275 31.81986 0.984403
2010-05-17 12:50:06 51°18.223 2°33.798 11.1263 3.604281 31.792877 0.670986
2010-05-17 12:51:06 51°18.089 2°34.106 11.0948 3.612083 31.788729 0.810283
2010-05-17 12:52:06 51°17.953 2°34.409 11.1117 3.607021 31.759148 0.914755
2010-05-17 12:53:06 51°17.815 2°34.712 11.1292 3.605545 31.73097 0.845107
2010-05-17 12:54:06 51°17.666 2°35.003 11.0988 3.606178 31.726864 0.636162
2010-05-17 12:55:06 51°17.513 2°35.298 11.0488 3.604807 31.738855 0.70581
2010-05-17 12:56:06 51°17.361 2°35.597 11.0792 3.602277 31.731263 0.70581
2010-05-17 12:57:06 51°17.209 2°35.898 11.1353 3.603964 31.727855 0.670986
2010-05-17 12:58:06 51°17.059 2°36.194 11.1548 3.607548 31.71421 0.427218
2010-05-17 12:59:05 51°16.911 2°36.475 11.0889 3.606599 31.696723 0.670986
2010-05-17 13:00:06 51°16.729 2°36.664 11.1372 3.597532 31.661511 0.810283
2010-05-17 13:01:06 51°16.627 2°36.811 11.2871 3.593313 31.538399 0.287922
2010-05-17 13:02:06 51°16.623 2°36.905 11.2696 3.599849 31.519223 0.218274
2010-05-17 13:03:06 51°16.63 2°36.938 11.2863 3.597846 31.513967 0.392394
2010-05-17 13:04:05 51°16.635 2°36.966 11.3081 3.598267 31.505869 0.601338
2010-05-17 13:05:06 51°16.64 2°36.995 11.3137 3.599005 31.496114 0.462042
2010-05-17 13:06:05 51°16.645 2°37.024 11.3246 3.599532 31.49447 0.427218
2010-05-17 13:07:06 51°16.658 2°37.058 11.3432 3.600481 31.490838 0.35757
2010-05-17 13:08:05 51°16.682 2°37.147 11.3076 3.601957 31.502478 0.740634
2010-05-17 13:09:05 51°16.635 2°37.241 11.3499 3.600587 31.499983 0.427218
2010-05-17 13:10:05 51°16.49 2°37.289 11.4105 3.601008 31.471626 0.462042
2010-05-17 13:11:05 51°16.287 2°37.294 11.3906 3.604593 31.466601 0.670986
2010-05-17 13:12:06 51°16.066 2°37.302 11.2581 3.602062 31.468358 0.740634
2010-05-17 13:13:05 51°15.85 2°37.32 11.2263 3.591414 31.46966 0.601338
2010-05-17 13:14:06 51°15.625 2°37.339 11.2936 3.588462 31.449046 0.566514
2010-05-17 13:15:05 51°15.41 2°37.363 11.4447 3.595842 31.451835 0.636162
2010-05-17 13:16:05 51°15.191 2°37.395 11.4595 3.607334 31.485773 0.775459
2010-05-17 13:17:05 51°14.972 2°37.428 11.3326 3.609021 31.475163 0.845107
2010-05-17 13:18:05 51°14.751 2°37.46 11.2324 3.60238 31.535028 0.984403
2010-05-17 13:19:06 51°14.527 2°37.491 11.2646 3.599217 31.544958 1.158523
2010-05-17 13:20:05 51°14.312 2°37.518 11.2769 3.6047 31.588159 2.586309
2010-05-17 13:21:05 51°14.093 2°37.548 11.506 3.606597 31.555026 1.158523
2010-05-17 13:22:05 51°13.875 2°37.561 11.4047 3.630952 31.607314 1.123699
2010-05-17 13:23:05 51°13.658 2°37.55 11.4566 3.621042 31.609281 1.611236
2010-05-17 13:24:05 51°13.441 2°37.535 11.3281 3.619249 31.581068 2.098773
2010-05-17 13:25:05 51°13.22 2°37.516 11.3062 3.611237 31.604213 3.979271
2010-05-17 13:26:05 51°12.999 2°37.498 11.3917 3.608917 31.598629 5.407058
2010-05-17 13:27:05 51°12.779 2°37.483 11.5204 3.613977 31.566445 6.80002
2010-05-17 13:28:06 51°12.565 2°37.422 11.489 3.617877 31.509762 6.591076
2010-05-17 13:29:05 51°12.365 2°37.337 11.5103 3.61503 31.492974 7.740269
2010-05-17 13:30:05 51°12.159 2°37.253 11.5269 3.614081 31.469661 7.705445
2010-05-17 13:31:06 51°11.95 2°37.166 11.555 3.614714 31.461669 7.043788
2010-05-17 13:32:05 51°11.745 2°37.096 11.5719 3.619775 31.487098 6.97414
2010-05-17 13:33:05 51°11.538 2°37.029 11.5679 3.629792 31.570486 6.834844
2010-05-17 13:34:05 51°11.328 2°36.987 11.5762 3.638439 31.654764 5.616002
2010-05-17 13:35:05 51°11.118 2°36.95 11.5849 3.641602 31.676577 5.51153
2010-05-17 13:36:05 51°10.908 2°36.93 11.5586 3.640969 31.669109 5.546354
2010-05-17 13:37:05 51°10.699 2°36.907 11.5622 3.637806 31.660124 5.476706
2010-05-17 13:38:06 51°10.487 2°36.882 11.5359 3.637279 31.653673 5.058817
2010-05-17 13:39:05 51°10.276 2°36.911 11.6206 3.633378 31.644966 5.267761
2010-05-17 13:40:05 51°10.063 2°36.992 11.9842 3.642761 31.625769 3.700679
2010-05-17 13:41:05 51°9.855 2°37.083 12.1985 3.630526 31.273064 3.491735
2010-05-17 13:42:05 51°9.701 2°37.262 12.1699 3.634529 31.074324 3.039022
2010-05-17 13:43:05 51°9.557 2°37.392 12.485 3.636955 31.108423 3.526559
2010-05-17 13:44:05 51°9.472 2°37.522 12.5445 3.655616 31.073479 3.422087
2010-05-17 13:45:05 51°9.463 2°37.617 12.2813 3.661837 31.075518 2.969374
2010-05-17 13:46:05 51°9.47 2°37.657 11.8381 3.645284 31.103067 3.28279
2010-05-17 13:47:05 51°9.475 2°37.682 11.8359 3.615237 31.181992 3.944447
2010-05-17 13:48:05 51°9.481 2°37.696 11.7924 3.610703 31.157637 4.04892
2010-05-17 13:49:06 51°9.494 2°37.704 11.7046 3.60617 31.18011 4.153392
2010-05-17 13:50:05 51°9.512 2°37.71 11.6983 3.600899 31.196265 4.153392
2010-05-17 13:51:05 51°9.535 2°37.715 11.6785 3.601004 31.178069 4.118568
2010-05-17 13:52:05 51°9.556 2°37.736 12.0931 3.600477 31.192868 4.04892
2010-05-17 13:53:05 51°9.585 2°37.846 12.2809 3.62367 31.06209 3.596207
2010-05-17 13:54:05 51°9.657 2°37.877 11.9417 3.640539 31.051601 3.247966
2010-05-17 13:55:05 51°9.669 2°37.827 12.3698 3.624726 31.185331 3.561383
2010-05-17 13:56:05 51°9.61 2°37.799 12.11 3.64444 31.051694 3.213142
2010-05-17 13:57:05 51°9.534 2°37.712 11.986 3.636956 31.169059 3.596207
2010-05-17 13:58:06 51°9.455 2°37.619 12.1367 3.632316 31.141848 3.456911
2010-05-17 13:59:05 51°9.433 2°37.547 12.0123 3.631156 31.130797 3.665855
2010-05-17 14:00:05 51°9.423 2°37.512 11.907 3.623566 31.170303 3.979271
2010-05-17 14:01:05 51°9.412 2°37.5 12.1276 3.621879 31.154833 3.909623
2010-05-17 14:02:05 51°9.405 2°37.501 12.2581 3.631156 31.109918 3.526559
2010-05-17 14:03:05 51°9.404 2°37.508 12.3504 3.640434 31.103124 3.422087
2010-05-17 14:04:06 51°9.404 2°37.523 12.3834 3.647182 31.095781 3.422087
2010-05-17 14:05:05 51°9.406 2°37.542 12.3895 3.65045 31.100197 3.422087
2010-05-17 14:06:05 51°9.409 2°37.565 12.4033 3.652032 31.107406 3.456911
2010-05-17 14:07:05 51°9.413 2°37.59 12.4028 3.652875 31.107626 3.526559
2010-05-17 14:08:05 51°9.418 2°37.618 12.3919 3.653192 31.104151 3.491735
2010-05-17 14:09:05 51°9.423 2°37.647 12.3681 3.652348 31.109106 3.596207
2010-05-17 14:10:05 51°9.429 2°37.678 12.3944 3.650872 31.114552 3.526559
2010-05-17 14:11:05 51°9.435 2°37.71 12.4286 3.651926 31.107702 3.561383
2010-05-17 14:12:05 51°9.441 2°37.737 12.3976 3.654246 31.101842 3.561383
2010-05-17 14:13:05 51°9.445 2°37.649 12.0772 3.653086 31.10574 3.526559
2010-05-17 14:14:05 51°9.449 2°37.443 11.6837 3.632317 31.209283 4.327512
2010-05-17 14:15:06 51°9.492 2°37.376 11.8559 3.610809 31.220052 4.153392
2010-05-17 14:16:05 51°9.533 2°37.37 11.8576 3.618717 31.252328 4.292688
2010-05-17 14:17:05 51°9.567 2°37.376 11.9565 3.620298 31.212037 4.04892
2010-05-17 14:18:05 51°9.583 2°37.383 12.0179 3.627362 31.231587 4.04892
2010-05-17 14:19:05 51°9.586 2°37.402 11.7898 3.630736 31.201398 3.944447
2010-05-17 14:20:05 51°9.58 2°37.427 11.8359 3.619456 31.2965 4.606104
2010-05-17 14:21:05 51°9.571 2°37.454 12.0662 3.620403 31.198553 3.805151
2010-05-17 14:22:05 51°9.562 2°37.477 12.1552 3.634953 31.200343 3.770327
2010-05-17 14:23:05 51°9.54 2°37.467 11.7985 3.641595 31.206056 3.839975
2010-05-17 14:24:05 51°9.523 2°37.458 11.6372 3.620088 31.301916 4.710577
2010-05-17 14:25:05 51°9.516 2°37.461 11.5954 3.608491 31.303941 5.302586
2010-05-17 14:26:05 51°9.511 2°37.467 11.5923 3.606172 31.302895 5.302586
2010-05-17 14:27:05 51°9.486 2°37.457 11.653 3.60459 31.310308 6.208011
2010-05-17 14:28:05 51°9.47 2°37.455 11.8452 3.609018 31.256494 4.989169
2010-05-17 14:29:01 51°9.463 2°37.457 11.9025 3.618506 31.232461 4.606104
2010-05-17 14:30:09 51°9.459 2°37.467 12.065 3.624937 31.200491 4.014096
2010-05-17 14:31:09 51°9.457 2°37.48 12.1204 3.632528 31.199488 3.909623
2010-05-17 14:32:09 51°9.457 2°37.494 12.1502 3.636429 31.186265 3.665855
2010-05-17 14:33:09 51°9.458 2°37.511 12.159 3.639064 31.178035 3.596207
2010-05-17 14:34:09 51°9.46 2°37.53 12.1535 3.638854 31.183868 3.839975
2010-05-17 14:35:09 51°9.462 2°37.55 12.0313 3.639592 31.177176 3.839975
2010-05-17 14:36:09 51°9.465 2°37.57 11.9757 3.633055 31.2183 4.153392
2010-05-17 14:37:09 51°9.462 2°37.563 11.9429 3.630103 31.217023 4.118568
2010-05-17 14:38:09 51°9.457 2°37.527 11.9312 3.627257 31.241116 4.675753
2010-05-17 14:39:09 51°9.459 2°37.507 11.8741 3.626097 31.235284 4.57128
2010-05-17 14:40:09 51°9.464 2°37.499 11.8397 3.621986 31.255262 4.536456
2010-05-17 14:41:09 51°9.471 2°37.499 11.7849 3.618717 31.252328 4.431984
2010-05-17 14:42:09 51°9.479 2°37.504 11.8517 3.614078 31.237554 4.362336
2010-05-17 14:43:09 51°9.487 2°37.512 11.9663 3.617451 31.206511 3.874799
2010-05-17 14:44:09 51°9.497 2°37.524 12.0527 3.626518 31.168332 3.735503
2010-05-17 14:45:09 51°9.506 2°37.538 12.0269 3.631895 31.160706 3.874799
2010-05-17 14:46:09 51°9.515 2°37.554 11.9976 3.62947 31.172924 4.188216
2010-05-17 14:47:09 51°9.518 2°37.562 11.763 3.628627 31.187162 4.362336
2010-05-17 14:48:09 51°9.473 2°37.564 11.8907 3.614395 31.294294 5.999067
2010-05-17 14:49:09 51°9.454 2°37.545 12.0103 3.62325 31.180413 5.267761
2010-05-17 14:50:09 51°9.452 2°37.541 12.0005 3.630631 31.231265 5.929418
2010-05-17 14:51:09 51°9.454 2°37.549 12.0514 3.631158 31.226443 5.51153
2010-05-17 14:52:09 51°9.456 2°37.565 12.0619 3.636219 31.240627 5.546354
2010-05-17 14:53:09 51°9.456 2°37.585 11.9975 3.63896 31.239881 5.85977
2010-05-17 14:54:09 51°9.451 2°37.605 11.9901 3.635692 31.265172 6.068715
2010-05-17 14:55:09 51°9.446 2°37.623 12.0147 3.636641 31.272926 6.277659
2010-05-17 14:56:09 51°9.44 2°37.638 11.9448 3.63875 31.297693 6.97414
2010-05-17 14:57:09 51°9.435 2°37.653 11.8773 3.633057 31.303893 7.496501
2010-05-17 14:58:09 51°9.425 2°37.649 11.7776 3.62905 31.319708 9.133231
2010-05-17 14:59:09 51°9.421 2°37.626 11.7322 3.622197 31.330146 11.605739
2010-05-17 15:00:09 51°9.425 2°37.623 11.7736 3.62167 31.340357 11.745035
2010-05-17 15:01:09 51°9.431 2°37.597 11.7259 3.624306 31.34776 12.371868
2010-05-17 15:02:09 51°9.435 2°37.572 11.6835 3.620511 31.360463 15.053321
2010-05-17 15:03:09 51°9.44 2°37.595 11.7116 3.618402 31.362138 14.983672
2010-05-17 15:04:09 51°9.443 2°37.63 11.7465 3.621355 31.369915 14.53096
2010-05-17 15:05:09 51°9.446 2°37.671 11.8043 3.626204 31.371323 11.605739
2010-05-17 15:06:09 51°9.446 2°37.709 11.8434 3.630738 31.380998 11.01373
2010-05-17 15:07:09 51°9.395 2°37.722 11.7252 3.633058 31.375385 9.098407
2010-05-17 15:08:09 51°9.364 2°37.978 11.8569 3.61893 31.357222 11.710211
2010-05-17 15:09:09 51°9.395 2°38.366 11.9571 3.625043 31.252879 14.078247
2010-05-17 15:10:09 51°9.473 2°38.748 12.0579 3.632317 31.21519 7.426853
2010-05-17 15:11:09 51°9.535 2°39.136 12.082 3.623038 31.114811 6.6259
2010-05-17 15:12:09 51°9.603 2°39.525 12.0946 3.624092 31.085017 5.128465
2010-05-17 15:13:09 51°9.68 2°39.907 12.1179 3.617449 31.037349 7.392029
2010-05-17 15:14:09 51°9.755 2°40.285 12.1297 3.614918 30.965757 5.824946
2010-05-17 15:15:09 51°9.827 2°40.666 12.144 3.616078 30.976146 6.97414
2010-05-17 15:16:09 51°9.899 2°41.049 12.1613 3.616394 30.962281 6.834844
2010-05-17 15:17:09 51°9.972 2°41.437 12.1931 3.616499 30.941892 5.51153
2010-05-17 15:18:09 51°10.042 2°41.825 12.1886 3.618924 30.951987 5.755298
2010-05-17 15:19:09 51°10.114 2°42.212 12.0764 3.614706 30.919675 6.486603
2010-05-17 15:20:09 51°10.179 2°42.55 11.9347 3.608276 30.977892 8.332278
2010-05-17 15:21:09 51°10.228 2°42.714 11.9071 3.60195 31.006226 6.834844
2010-05-17 15:22:09 51°10.244 2°42.772 11.8956 3.600369 31.000909 6.730372
2010-05-17 15:23:09 51°10.255 2°42.825 11.9084 3.599315 30.999327 6.904492
2010-05-17 15:24:09 51°10.265 2°42.876 11.925 3.599736 30.995512 6.869668
2010-05-17 15:25:09 51°10.276 2°42.93 11.9386 3.60058 30.989196 6.347307
2010-05-17 15:26:09 51°10.332 2°42.962 11.9342 3.601107 30.998159 6.556251
2010-05-17 15:27:09 51°10.431 2°42.819 12.0308 3.602477 30.989699 6.208011
2010-05-17 15:28:09 51°10.57 2°42.594 12.2624 3.608064 30.944007 5.581178
2010-05-17 15:29:09 51°10.713 2°42.363 12.0869 3.634319 31.111349 3.770327
2010-05-17 15:30:20 51°10.883 2°42.092 11.6865 3.636533 31.103113 3.805151
2010-05-17 15:31:20 51°11.019 2°41.984 11.6078 3.617453 31.337684 5.128465
2010-05-17 15:32:20 51°11.075 2°42.039 11.6331 3.611549 31.351429 5.85977
2010-05-17 15:33:21 51°11.083 2°42.081 11.6112 3.612709 31.351271 6.556251
2010-05-17 15:34:23 51°11.09 2°42.125 11.5948 3.611444 31.357756 7.809917
2010-05-17 15:35:21 51°11.094 2°42.17 11.6227 3.610601 31.355627 7.357205
2010-05-17 15:36:20 51°11.096 2°42.215 11.6138 3.612182 31.356197 6.591076
2010-05-17 15:37:20 51°11.086 2°42.36 11.6063 3.611655 31.362462 5.616002
2010-05-17 15:38:20 51°11.095 2°42.677 11.6819 3.609968 31.342846 6.138363
2010-05-17 15:39:20 51°11.151 2°43.061 12.1021 3.609966 31.247049 4.640929
2010-05-17 15:40:20 51°11.217 2°43.441 11.8512 3.624198 31.143557 4.780225
2010-05-17 15:41:20 51°11.311 2°43.805 12.1149 3.605115 31.097487 4.675753
2010-05-17 15:42:20 51°11.398 2°44.175 11.7101 3.616605 31.003915 3.839975
2010-05-17 15:43:20 51°11.481 2°44.544 11.6581 3.593834 31.10977 4.39716
2010-05-17 15:44:20 51°11.566 2°44.912 11.7095 3.583607 31.039778 3.909623
2010-05-17 15:45:20 51°11.649 2°45.28 11.7356 3.581392 30.990155 4.014096
2010-05-17 15:46:20 51°11.734 2°45.649 11.8271 3.581497 30.963558 3.631031
2010-05-17 15:47:20 51°11.819 2°46.023 11.9064 3.58234 30.894351 3.317614
2010-05-17 15:48:20 51°11.904 2°46.397 11.9166 3.590879 30.912764 3.073846
2010-05-17 15:49:20 51°11.989 2°46.771 11.8651 3.589298 30.894381 2.864902
2010-05-17 15:50:20 51°12.075 2°47.144 11.8477 3.579598 30.834837 3.004198
2010-05-17 15:51:20 51°12.161 2°47.518 11.8679 3.581074 30.85939 2.899726
2010-05-17 15:52:20 51°12.249 2°47.894 11.9139 3.579598 30.834186 2.795254
2010-05-17 15:53:20 51°12.335 2°48.268 11.8633 3.578648 30.79194 3.073846
2010-05-17 15:54:20 51°12.423 2°48.637 11.8546 3.564415 30.702597 3.247966
2010-05-17 15:55:20 51°12.525 2°48.999 11.9561 3.560197 30.666149 2.795254
2010-05-17 15:56:20 51°12.635 2°49.356 12.0386 3.565468 30.624042 2.412189
2010-05-17 15:57:20 51°12.764 2°49.697 11.9826 3.569052 30.6086 2.377365
2010-05-17 15:58:20 51°12.895 2°50.038 12.0602 3.566733 30.610967 2.272893
2010-05-17 15:59:20 51°13.023 2°50.379 11.9936 3.57095 30.599658 2.063949
2010-05-17 16:00:20 51°13.152 2°50.72 12.0211 3.558825 30.54076 2.516661
2010-05-17 16:01:20 51°13.278 2°51.059 11.8544 3.556084 30.510147 2.551485
2010-05-17 16:02:20 51°13.405 2°51.4 11.9294 3.54027 30.46727 2.447013
2010-05-17 16:03:20 51°13.533 2°51.742 11.9183 3.549126 30.495851 1.924652
2010-05-17 16:04:20 51°13.66 2°52.084 11.9395 3.545857 30.473026 2.168421
2010-05-17 16:05:20 51°13.787 2°52.426 11.96 3.543959 30.43759 2.133597
2010-05-17 16:06:20 51°13.913 2°52.767 12.0312 3.543221 30.412608 2.168421
2010-05-17 16:07:20 51°14.041 2°53.107 12.0343 3.542799 30.356173 2.098773
2010-05-17 16:08:20 51°14.163 2°53.421 12.354 0.081604 0.537579 -0.93092
2010-05-17 16:09:20 51°14.28 2°53.729 12.5107 0.068597 0.448775 -0.861272
2010-05-17 16:10:20 51°14.39 2°54.042 12.6374 0.06017 0.391698 -0.896096
2010-05-17 16:11:20 51°14.507 2°54.347 12.7554 0.057569 0.373997 -0.896096
2010-05-17 16:12:20 51°14.59 2°54.668 12.8867 0.067557 0.44135 -0.896096
2010-05-17 16:13:20 51°14.531 2°54.982 12.9867 0.069013 0.451015 -0.896096
2010-05-17 16:14:20 51°14.37 2°55.16 13.1125 0.059858 0.388993 -0.93092
2010-05-17 16:15:20 51°14.244 2°55.305 13.2288 1.419955 9.676518 -0.93092
2010-05-17 16:16:20 51°14.129 2°55.421 13.3814 0.174882 1.010386 -0.93092
2010-05-17 16:17:20 51°14.004 2°55.507 13.5718 0.076087 0.421431 -0.861272
2010-05-17 16:19:14 51°13.914 2°55.569 13.5665 0.085556 0.478193 -0.861272
2010-05-17 16:20:14 51°13.726 2°55.772 13.6432 0.083163 0.464838 -0.861272
2010-05-17 16:21:14 51°13.686 2°55.861 13.7098 0.080457 0.449287 -0.896096
2010-05-17 16:22:13 51°13.667 2°55.939 13.8462 0.078584 0.438605 -0.861272
2010-05-17 16:23:15 51°13.663 2°55.96 14.0214 0.077232 0.431158 -0.93092